sensor_id;sensor_type;location;lat;lon;timestamp;P1;durP1;ratioP1;P2;durP2;ratioP2
16531;SDS011;8378;57.698;11.958;2022-08-21T00:01:18;6.25;;;2.28;;
16531;SDS011;8378;57.698;11.958;2022-08-21T00:03:47;3.45;;;1.70;;
16531;SDS011;8378;57.698;11.958;2022-08-21T00:06:13;5.35;;;1.95;;
16531;SDS011;8378;57.698;11.958;2022-08-21T00:08:39;3.58;;;1.77;;
16531;SDS011;8378;57.698;11.958;2022-08-21T00:11:05;3.78;;;1.90;;
16531;SDS011;8378;57.698;11.958;2022-08-21T00:13:32;3.85;;;1.75;;
16531;SDS011;8378;57.698;11.958;2022-08-21T00:15:58;2.00;;;1.80;;
16531;SDS011;8378;57.698;11.958;2022-08-21T00:18:24;3.65;;;1.60;;
16531;SDS011;8378;57.698;11.958;2022-08-21T00:20:50;5.22;;;1.88;;
16531;SDS011;8378;57.698;11.958;2022-08-21T00:23:17;4.30;;;1.95;;
16531;SDS011;8378;57.698;11.958;2022-08-21T00:25:43;4.57;;;1.88;;
16531;SDS011;8378;57.698;11.958;2022-08-21T00:28:09;2.22;;;1.83;;
16531;SDS011;8378;57.698;11.958;2022-08-21T00:30:35;5.25;;;2.10;;
16531;SDS011;8378;57.698;11.958;2022-08-21T00:33:02;3.58;;;1.90;;
16531;SDS011;8378;57.698;11.958;2022-08-21T00:35:30;3.65;;;1.88;;
16531;SDS011;8378;57.698;11.958;2022-08-21T00:37:58;3.70;;;1.77;;
16531;SDS011;8378;57.698;11.958;2022-08-21T00:40:34;5.03;;;2.00;;
16531;SDS011;8378;57.698;11.958;2022-08-21T00:43:07;3.40;;;1.73;;
16531;SDS011;8378;57.698;11.958;2022-08-21T00:45:36;3.28;;;1.65;;
16531;SDS011;8378;57.698;11.958;2022-08-21T00:48:02;2.72;;;1.70;;
16531;SDS011;8378;57.698;11.958;2022-08-21T00:50:29;2.75;;;1.50;;
16531;SDS011;8378;57.698;11.958;2022-08-21T00:53:00;2.53;;;1.60;;
16531;SDS011;8378;57.698;11.958;2022-08-21T00:55:28;3.65;;;2.00;;
16531;SDS011;8378;57.698;11.958;2022-08-21T00:57:55;3.65;;;1.80;;
16531;SDS011;8378;57.698;11.958;2022-08-21T01:00:26;4.03;;;1.83;;
16531;SDS011;8378;57.698;11.958;2022-08-21T01:02:58;4.85;;;2.08;;
16531;SDS011;8378;57.698;11.958;2022-08-21T01:05:25;4.82;;;2.13;;
16531;SDS011;8378;57.698;11.958;2022-08-21T01:07:51;4.50;;;2.00;;
16531;SDS011;8378;57.698;11.958;2022-08-21T01:10:18;4.20;;;2.10;;
16531;SDS011;8378;57.698;11.958;2022-08-21T01:12:44;3.65;;;2.22;;
16531;SDS011;8378;57.698;11.958;2022-08-21T01:15:10;5.07;;;2.10;;
16531;SDS011;8378;57.698;11.958;2022-08-21T01:17:37;3.97;;;2.10;;
16531;SDS011;8378;57.698;11.958;2022-08-21T01:20:04;2.53;;;1.77;;
16531;SDS011;8378;57.698;11.958;2022-08-21T01:22:33;2.92;;;1.83;;
16531;SDS011;8378;57.698;11.958;2022-08-21T01:24:59;6.60;;;1.90;;
16531;SDS011;8378;57.698;11.958;2022-08-21T01:27:25;4.57;;;2.00;;
16531;SDS011;8378;57.698;11.958;2022-08-21T01:32:20;2.75;;;1.80;;
16531;SDS011;8378;57.698;11.958;2022-08-21T01:34:46;3.67;;;1.92;;
16531;SDS011;8378;57.698;11.958;2022-08-21T01:37:14;4.28;;;1.88;;
16531;SDS011;8378;57.698;11.958;2022-08-21T01:39:40;4.40;;;1.83;;
16531;SDS011;8378;57.698;11.958;2022-08-21T01:42:07;4.75;;;1.80;;
16531;SDS011;8378;57.698;11.958;2022-08-21T01:44:33;3.58;;;1.77;;
16531;SDS011;8378;57.698;11.958;2022-08-21T01:46:59;3.63;;;1.67;;
16531;SDS011;8378;57.698;11.958;2022-08-21T01:49:26;3.45;;;1.70;;
16531;SDS011;8378;57.698;11.958;2022-08-21T01:51:52;2.78;;;1.67;;
16531;SDS011;8378;57.698;11.958;2022-08-21T01:54:18;3.15;;;1.88;;
16531;SDS011;8378;57.698;11.958;2022-08-21T01:56:45;2.92;;;1.80;;
16531;SDS011;8378;57.698;11.958;2022-08-21T01:59:13;5.53;;;1.90;;
16531;SDS011;8378;57.698;11.958;2022-08-21T02:01:39;2.85;;;1.90;;
16531;SDS011;8378;57.698;11.958;2022-08-21T02:04:05;2.53;;;1.73;;
16531;SDS011;8378;57.698;11.958;2022-08-21T02:06:32;2.80;;;1.75;;
16531;SDS011;8378;57.698;11.958;2022-08-21T02:08:59;3.50;;;1.58;;
16531;SDS011;8378;57.698;11.958;2022-08-21T02:11:26;4.20;;;2.00;;
16531;SDS011;8378;57.698;11.958;2022-08-21T02:13:51;3.75;;;1.73;;
16531;SDS011;8378;57.698;11.958;2022-08-21T02:16:17;4.75;;;1.80;;
16531;SDS011;8378;57.698;11.958;2022-08-21T02:18:42;3.70;;;2.22;;
16531;SDS011;8378;57.698;11.958;2022-08-21T02:21:08;2.83;;;1.80;;
16531;SDS011;8378;57.698;11.958;2022-08-21T02:23:34;2.90;;;1.80;;
16531;SDS011;8378;57.698;11.958;2022-08-21T02:26:01;5.03;;;2.05;;
16531;SDS011;8378;57.698;11.958;2022-08-21T02:28:30;3.03;;;1.65;;
16531;SDS011;8378;57.698;11.958;2022-08-21T02:30:56;3.38;;;1.85;;
16531;SDS011;8378;57.698;11.958;2022-08-21T02:33:22;3.03;;;1.65;;
16531;SDS011;8378;57.698;11.958;2022-08-21T02:35:49;3.72;;;1.67;;
16531;SDS011;8378;57.698;11.958;2022-08-21T02:38:17;3.38;;;2.10;;
16531;SDS011;8378;57.698;11.958;2022-08-21T02:40:47;4.45;;;1.70;;
16531;SDS011;8378;57.698;11.958;2022-08-21T02:43:14;4.85;;;1.77;;
16531;SDS011;8378;57.698;11.958;2022-08-21T02:45:41;3.17;;;1.90;;
16531;SDS011;8378;57.698;11.958;2022-08-21T02:48:09;4.20;;;2.00;;
16531;SDS011;8378;57.698;11.958;2022-08-21T02:50:39;3.30;;;1.80;;
16531;SDS011;8378;57.698;11.958;2022-08-21T02:53:10;2.30;;;1.70;;
16531;SDS011;8378;57.698;11.958;2022-08-21T02:55:39;4.22;;;1.75;;
16531;SDS011;8378;57.698;11.958;2022-08-21T02:58:05;4.72;;;1.80;;
16531;SDS011;8378;57.698;11.958;2022-08-21T03:00:33;2.60;;;1.92;;
16531;SDS011;8378;57.698;11.958;2022-08-21T03:03:00;3.22;;;1.67;;
16531;SDS011;8378;57.698;11.958;2022-08-21T03:05:27;3.00;;;1.70;;
16531;SDS011;8378;57.698;11.958;2022-08-21T03:07:53;3.60;;;1.52;;
16531;SDS011;8378;57.698;11.958;2022-08-21T03:10:19;2.85;;;1.42;;
16531;SDS011;8378;57.698;11.958;2022-08-21T03:12:46;2.70;;;1.70;;
16531;SDS011;8378;57.698;11.958;2022-08-21T03:15:13;4.28;;;1.80;;
16531;SDS011;8378;57.698;11.958;2022-08-21T03:17:42;5.50;;;1.83;;
16531;SDS011;8378;57.698;11.958;2022-08-21T03:20:08;2.35;;;1.60;;
16531;SDS011;8378;57.698;11.958;2022-08-21T03:22:34;3.08;;;1.65;;
16531;SDS011;8378;57.698;11.958;2022-08-21T03:25:00;5.78;;;1.88;;
16531;SDS011;8378;57.698;11.958;2022-08-21T03:27:26;3.50;;;1.70;;
16531;SDS011;8378;57.698;11.958;2022-08-21T03:29:53;3.47;;;1.92;;
16531;SDS011;8378;57.698;11.958;2022-08-21T03:32:19;4.45;;;2.28;;
16531;SDS011;8378;57.698;11.958;2022-08-21T03:34:45;4.15;;;2.00;;
16531;SDS011;8378;57.698;11.958;2022-08-21T03:37:11;4.30;;;2.13;;
16531;SDS011;8378;57.698;11.958;2022-08-21T03:39:38;3.60;;;1.80;;
16531;SDS011;8378;57.698;11.958;2022-08-21T03:42:06;3.08;;;1.63;;
16531;SDS011;8378;57.698;11.958;2022-08-21T03:44:33;3.03;;;1.92;;
16531;SDS011;8378;57.698;11.958;2022-08-21T03:46:59;3.28;;;2.35;;
16531;SDS011;8378;57.698;11.958;2022-08-21T03:49:26;4.25;;;1.95;;
16531;SDS011;8378;57.698;11.958;2022-08-21T03:51:51;3.40;;;1.92;;
16531;SDS011;8378;57.698;11.958;2022-08-21T03:54:17;5.43;;;2.03;;
16531;SDS011;8378;57.698;11.958;2022-08-21T03:56:43;3.30;;;1.77;;
16531;SDS011;8378;57.698;11.958;2022-08-21T03:59:09;4.55;;;1.77;;
16531;SDS011;8378;57.698;11.958;2022-08-21T04:01:35;3.15;;;1.80;;
16531;SDS011;8378;57.698;11.958;2022-08-21T04:04:01;3.20;;;1.80;;
16531;SDS011;8378;57.698;11.958;2022-08-21T04:06:27;2.95;;;2.00;;
16531;SDS011;8378;57.698;11.958;2022-08-21T04:08:53;4.05;;;1.85;;
16531;SDS011;8378;57.698;11.958;2022-08-21T04:11:20;4.07;;;1.60;;
16531;SDS011;8378;57.698;11.958;2022-08-21T04:13:45;2.67;;;1.55;;
16531;SDS011;8378;57.698;11.958;2022-08-21T04:16:12;2.95;;;1.60;;
16531;SDS011;8378;57.698;11.958;2022-08-21T04:18:38;2.90;;;1.70;;
16531;SDS011;8378;57.698;11.958;2022-08-21T04:21:04;3.80;;;1.75;;
16531;SDS011;8378;57.698;11.958;2022-08-21T04:23:31;2.28;;;1.70;;
16531;SDS011;8378;57.698;11.958;2022-08-21T04:25:57;3.80;;;1.80;;
16531;SDS011;8378;57.698;11.958;2022-08-21T04:28:23;3.88;;;1.90;;
16531;SDS011;8378;57.698;11.958;2022-08-21T04:30:51;2.03;;;1.50;;
16531;SDS011;8378;57.698;11.958;2022-08-21T04:33:17;2.97;;;1.60;;
16531;SDS011;8378;57.698;11.958;2022-08-21T04:35:43;2.88;;;1.67;;
16531;SDS011;8378;57.698;11.958;2022-08-21T04:38:09;3.33;;;1.70;;
16531;SDS011;8378;57.698;11.958;2022-08-21T04:40:34;2.85;;;1.70;;
16531;SDS011;8378;57.698;11.958;2022-08-21T04:43:02;2.70;;;1.60;;
16531;SDS011;8378;57.698;11.958;2022-08-21T04:47:58;3.15;;;1.70;;
16531;SDS011;8378;57.698;11.958;2022-08-21T04:51:11;2.15;;;1.60;;
16531;SDS011;8378;57.698;11.958;2022-08-21T04:53:16;4.55;;;2.05;;
16531;SDS011;8378;57.698;11.958;2022-08-21T04:55:45;4.97;;;1.70;;
16531;SDS011;8378;57.698;11.958;2022-08-21T04:58:13;3.25;;;1.70;;
16531;SDS011;8378;57.698;11.958;2022-08-21T05:00:42;3.67;;;1.55;;
16531;SDS011;8378;57.698;11.958;2022-08-21T05:03:08;4.85;;;1.85;;
16531;SDS011;8378;57.698;11.958;2022-08-21T05:05:36;3.22;;;1.60;;
16531;SDS011;8378;57.698;11.958;2022-08-21T05:08:02;2.53;;;1.60;;
16531;SDS011;8378;57.698;11.958;2022-08-21T05:10:29;3.92;;;2.05;;
16531;SDS011;8378;57.698;11.958;2022-08-21T05:12:56;3.28;;;1.63;;
16531;SDS011;8378;57.698;11.958;2022-08-21T05:15:23;2.78;;;1.60;;
16531;SDS011;8378;57.698;11.958;2022-08-21T05:17:48;3.67;;;1.92;;
16531;SDS011;8378;57.698;11.958;2022-08-21T05:20:15;5.25;;;1.90;;
16531;SDS011;8378;57.698;11.958;2022-08-21T05:22:41;3.88;;;1.88;;
16531;SDS011;8378;57.698;11.958;2022-08-21T05:25:07;4.63;;;1.83;;
16531;SDS011;8378;57.698;11.958;2022-08-21T05:27:33;2.88;;;1.60;;
16531;SDS011;8378;57.698;11.958;2022-08-21T05:30:00;3.75;;;1.70;;
16531;SDS011;8378;57.698;11.958;2022-08-21T05:32:26;3.25;;;1.55;;
16531;SDS011;8378;57.698;11.958;2022-08-21T05:34:53;2.42;;;1.50;;
16531;SDS011;8378;57.698;11.958;2022-08-21T05:37:19;2.83;;;1.67;;
16531;SDS011;8378;57.698;11.958;2022-08-21T05:39:45;2.83;;;1.50;;
16531;SDS011;8378;57.698;11.958;2022-08-21T05:42:11;3.58;;;1.70;;
16531;SDS011;8378;57.698;11.958;2022-08-21T05:44:37;2.83;;;1.60;;
16531;SDS011;8378;57.698;11.958;2022-08-21T05:47:04;2.40;;;1.73;;
16531;SDS011;8378;57.698;11.958;2022-08-21T05:49:31;2.45;;;1.40;;
16531;SDS011;8378;57.698;11.958;2022-08-21T05:51:57;2.85;;;1.50;;
16531;SDS011;8378;57.698;11.958;2022-08-21T05:54:23;3.50;;;1.70;;
16531;SDS011;8378;57.698;11.958;2022-08-21T05:56:48;3.53;;;1.98;;
16531;SDS011;8378;57.698;11.958;2022-08-21T05:59:14;4.38;;;1.70;;
16531;SDS011;8378;57.698;11.958;2022-08-21T06:01:39;3.97;;;1.58;;
16531;SDS011;8378;57.698;11.958;2022-08-21T06:04:05;4.25;;;1.50;;
16531;SDS011;8378;57.698;11.958;2022-08-21T06:06:32;2.63;;;1.45;;
16531;SDS011;8378;57.698;11.958;2022-08-21T06:08:58;2.90;;;1.65;;
16531;SDS011;8378;57.698;11.958;2022-08-21T06:11:24;2.17;;;1.45;;
16531;SDS011;8378;57.698;11.958;2022-08-21T06:13:49;2.38;;;1.50;;
16531;SDS011;8378;57.698;11.958;2022-08-21T06:16:16;2.88;;;1.73;;
16531;SDS011;8378;57.698;11.958;2022-08-21T06:18:42;4.10;;;1.85;;
16531;SDS011;8378;57.698;11.958;2022-08-21T06:21:09;1.67;;;1.23;;
16531;SDS011;8378;57.698;11.958;2022-08-21T06:23:36;2.92;;;1.88;;
16531;SDS011;8378;57.698;11.958;2022-08-21T06:26:02;2.55;;;1.40;;
16531;SDS011;8378;57.698;11.958;2022-08-21T06:28:29;3.45;;;1.83;;
16531;SDS011;8378;57.698;11.958;2022-08-21T06:30:56;2.63;;;1.48;;
16531;SDS011;8378;57.698;11.958;2022-08-21T06:33:21;4.05;;;2.10;;
16531;SDS011;8378;57.698;11.958;2022-08-21T06:35:47;2.67;;;1.55;;
16531;SDS011;8378;57.698;11.958;2022-08-21T06:38:13;3.67;;;1.42;;
16531;SDS011;8378;57.698;11.958;2022-08-21T06:40:39;4.20;;;1.67;;
16531;SDS011;8378;57.698;11.958;2022-08-21T06:43:06;2.40;;;1.65;;
16531;SDS011;8378;57.698;11.958;2022-08-21T06:45:33;4.70;;;1.52;;
16531;SDS011;8378;57.698;11.958;2022-08-21T06:47:59;1.92;;;1.45;;
16531;SDS011;8378;57.698;11.958;2022-08-21T06:50:24;2.95;;;1.75;;
16531;SDS011;8378;57.698;11.958;2022-08-21T06:52:57;3.97;;;1.67;;
16531;SDS011;8378;57.698;11.958;2022-08-21T06:55:24;4.07;;;1.80;;
16531;SDS011;8378;57.698;11.958;2022-08-21T06:57:50;4.05;;;1.77;;
16531;SDS011;8378;57.698;11.958;2022-08-21T07:00:15;5.00;;;2.10;;
16531;SDS011;8378;57.698;11.958;2022-08-21T07:02:41;5.70;;;1.90;;
16531;SDS011;8378;57.698;11.958;2022-08-21T07:05:07;6.75;;;2.25;;
16531;SDS011;8378;57.698;11.958;2022-08-21T07:07:32;4.68;;;1.70;;
16531;SDS011;8378;57.698;11.958;2022-08-21T07:09:58;3.53;;;1.80;;
16531;SDS011;8378;57.698;11.958;2022-08-21T07:12:24;4.63;;;1.90;;
16531;SDS011;8378;57.698;11.958;2022-08-21T07:14:50;3.22;;;1.80;;
16531;SDS011;8378;57.698;11.958;2022-08-21T07:17:17;4.25;;;1.90;;
16531;SDS011;8378;57.698;11.958;2022-08-21T07:19:42;4.30;;;1.63;;
16531;SDS011;8378;57.698;11.958;2022-08-21T07:22:08;4.32;;;1.80;;
16531;SDS011;8378;57.698;11.958;2022-08-21T07:24:34;4.15;;;2.03;;
16531;SDS011;8378;57.698;11.958;2022-08-21T07:26:59;4.35;;;2.00;;
16531;SDS011;8378;57.698;11.958;2022-08-21T07:29:25;4.28;;;1.77;;
16531;SDS011;8378;57.698;11.958;2022-08-21T07:31:50;4.65;;;2.10;;
16531;SDS011;8378;57.698;11.958;2022-08-21T07:34:16;4.57;;;2.08;;
16531;SDS011;8378;57.698;11.958;2022-08-21T07:36:42;4.40;;;2.03;;
16531;SDS011;8378;57.698;11.958;2022-08-21T07:39:07;4.72;;;1.92;;
16531;SDS011;8378;57.698;11.958;2022-08-21T07:41:33;4.13;;;1.83;;
16531;SDS011;8378;57.698;11.958;2022-08-21T07:43:59;6.55;;;2.40;;
16531;SDS011;8378;57.698;11.958;2022-08-21T07:46:25;4.93;;;2.10;;
16531;SDS011;8378;57.698;11.958;2022-08-21T07:48:51;4.43;;;1.90;;
16531;SDS011;8378;57.698;11.958;2022-08-21T07:51:18;3.30;;;2.03;;
16531;SDS011;8378;57.698;11.958;2022-08-21T07:53:52;4.03;;;2.10;;
16531;SDS011;8378;57.698;11.958;2022-08-21T07:56:19;4.38;;;2.28;;
16531;SDS011;8378;57.698;11.958;2022-08-21T07:58:45;4.95;;;2.00;;
16531;SDS011;8378;57.698;11.958;2022-08-21T08:01:11;4.85;;;1.77;;
16531;SDS011;8378;57.698;11.958;2022-08-21T08:03:37;3.60;;;1.90;;
16531;SDS011;8378;57.698;11.958;2022-08-21T08:06:04;3.88;;;1.98;;
16531;SDS011;8378;57.698;11.958;2022-08-21T08:08:30;3.17;;;1.77;;
16531;SDS011;8378;57.698;11.958;2022-08-21T08:10:56;2.95;;;1.90;;
16531;SDS011;8378;57.698;11.958;2022-08-21T08:13:23;4.88;;;1.95;;
16531;SDS011;8378;57.698;11.958;2022-08-21T08:15:49;2.95;;;1.70;;
16531;SDS011;8378;57.698;11.958;2022-08-21T08:18:15;3.15;;;2.05;;
16531;SDS011;8378;57.698;11.958;2022-08-21T08:20:41;4.00;;;2.00;;
16531;SDS011;8378;57.698;11.958;2022-08-21T08:23:09;4.95;;;2.47;;
16531;SDS011;8378;57.698;11.958;2022-08-21T08:25:36;2.90;;;1.80;;
16531;SDS011;8378;57.698;11.958;2022-08-21T08:28:01;4.35;;;2.20;;
16531;SDS011;8378;57.698;11.958;2022-08-21T08:30:28;4.18;;;1.85;;
16531;SDS011;8378;57.698;11.958;2022-08-21T08:32:53;7.85;;;2.35;;
16531;SDS011;8378;57.698;11.958;2022-08-21T08:35:19;4.05;;;1.95;;
16531;SDS011;8378;57.698;11.958;2022-08-21T08:37:45;3.22;;;1.95;;
16531;SDS011;8378;57.698;11.958;2022-08-21T08:40:12;5.00;;;2.17;;
16531;SDS011;8378;57.698;11.958;2022-08-21T08:42:42;4.80;;;1.92;;
16531;SDS011;8378;57.698;11.958;2022-08-21T08:45:09;4.15;;;1.90;;
16531;SDS011;8378;57.698;11.958;2022-08-21T08:47:43;5.75;;;2.15;;
16531;SDS011;8378;57.698;11.958;2022-08-21T08:52:54;5.03;;;2.70;;
16531;SDS011;8378;57.698;11.958;2022-08-21T08:55:30;5.85;;;3.05;;
16531;SDS011;8378;57.698;11.958;2022-08-21T08:58:00;4.25;;;2.28;;
16531;SDS011;8378;57.698;11.958;2022-08-21T09:00:27;8.48;;;2.50;;
16531;SDS011;8378;57.698;11.958;2022-08-21T09:02:55;6.32;;;2.22;;
16531;SDS011;8378;57.698;11.958;2022-08-21T09:05:26;6.10;;;2.80;;
16531;SDS011;8378;57.698;11.958;2022-08-21T09:10:38;3.10;;;2.10;;
16531;SDS011;8378;57.698;11.958;2022-08-21T09:13:38;4.68;;;2.13;;
16531;SDS011;8378;57.698;11.958;2022-08-21T09:16:21;4.13;;;2.20;;
16531;SDS011;8378;57.698;11.958;2022-08-21T09:19:11;2.78;;;1.92;;
16531;SDS011;8378;57.698;11.958;2022-08-21T09:22:47;3.70;;;2.13;;
16531;SDS011;8378;57.698;11.958;2022-08-21T09:27:37;2.88;;;2.00;;
16531;SDS011;8378;57.698;11.958;2022-08-21T09:30:03;2.50;;;1.80;;
16531;SDS011;8378;57.698;11.958;2022-08-21T09:32:31;4.57;;;1.80;;
16531;SDS011;8378;57.698;11.958;2022-08-21T09:35:06;5.72;;;1.88;;
16531;SDS011;8378;57.698;11.958;2022-08-21T09:37:45;3.72;;;1.98;;
16531;SDS011;8378;57.698;11.958;2022-08-21T09:43:03;5.40;;;1.90;;
16531;SDS011;8378;57.698;11.958;2022-08-21T09:45:35;6.85;;;2.22;;
16531;SDS011;8378;57.698;11.958;2022-08-21T09:51:09;4.20;;;2.20;;
16531;SDS011;8378;57.698;11.958;2022-08-21T09:59:24;3.45;;;2.10;;
16531;SDS011;8378;57.698;11.958;2022-08-21T10:01:51;5.22;;;2.15;;
16531;SDS011;8378;57.698;11.958;2022-08-21T10:04:21;4.13;;;1.92;;
16531;SDS011;8378;57.698;11.958;2022-08-21T10:06:49;3.47;;;2.30;;
16531;SDS011;8378;57.698;11.958;2022-08-21T10:09:21;4.38;;;2.05;;
16531;SDS011;8378;57.698;11.958;2022-08-21T10:11:56;4.47;;;2.10;;
16531;SDS011;8378;57.698;11.958;2022-08-21T10:17:37;6.15;;;3.88;;
16531;SDS011;8378;57.698;11.958;2022-08-21T10:20:14;3.83;;;2.65;;
16531;SDS011;8378;57.698;11.958;2022-08-21T10:28:24;4.97;;;3.00;;
16531;SDS011;8378;57.698;11.958;2022-08-21T10:31:38;4.65;;;2.55;;
16531;SDS011;8378;57.698;11.958;2022-08-21T10:37:24;5.43;;;2.60;;
16531;SDS011;8378;57.698;11.958;2022-08-21T10:46:07;7.03;;;2.63;;
16531;SDS011;8378;57.698;11.958;2022-08-21T10:48:39;4.60;;;2.35;;
16531;SDS011;8378;57.698;11.958;2022-08-21T10:51:18;5.85;;;2.28;;
16531;SDS011;8378;57.698;11.958;2022-08-21T10:54:13;5.43;;;2.15;;
16531;SDS011;8378;57.698;11.958;2022-08-21T10:57:06;3.40;;;1.90;;
16531;SDS011;8378;57.698;11.958;2022-08-21T11:00:09;2.90;;;1.75;;
16531;SDS011;8378;57.698;11.958;2022-08-21T11:02:44;4.50;;;2.10;;
16531;SDS011;8378;57.698;11.958;2022-08-21T11:05:20;4.57;;;2.38;;
16531;SDS011;8378;57.698;11.958;2022-08-21T11:08:10;4.50;;;2.05;;
16531;SDS011;8378;57.698;11.958;2022-08-21T11:10:46;4.45;;;2.13;;
16531;SDS011;8378;57.698;11.958;2022-08-21T11:16:22;4.22;;;2.10;;
16531;SDS011;8378;57.698;11.958;2022-08-21T11:18:50;3.22;;;1.90;;
16531;SDS011;8378;57.698;11.958;2022-08-21T11:23:57;4.35;;;2.03;;
16531;SDS011;8378;57.698;11.958;2022-08-21T11:26:36;3.00;;;1.77;;
16531;SDS011;8378;57.698;11.958;2022-08-21T11:29:21;3.28;;;1.83;;
16531;SDS011;8378;57.698;11.958;2022-08-21T11:45:38;4.45;;;1.90;;
16531;SDS011;8378;57.698;11.958;2022-08-21T11:50:47;2.55;;;1.58;;
16531;SDS011;8378;57.698;11.958;2022-08-21T11:53:25;3.35;;;1.95;;
16531;SDS011;8378;57.698;11.958;2022-08-21T11:56:07;3.03;;;1.50;;
16531;SDS011;8378;57.698;11.958;2022-08-21T11:58:47;3.17;;;1.70;;
16531;SDS011;8378;57.698;11.958;2022-08-21T12:01:27;4.18;;;1.83;;
16531;SDS011;8378;57.698;11.958;2022-08-21T12:04:06;3.28;;;1.70;;
16531;SDS011;8378;57.698;11.958;2022-08-21T12:06:41;3.25;;;1.80;;
16531;SDS011;8378;57.698;11.958;2022-08-21T12:09:28;5.45;;;2.20;;
16531;SDS011;8378;57.698;11.958;2022-08-21T12:12:00;5.10;;;1.95;;
16531;SDS011;8378;57.698;11.958;2022-08-21T12:14:45;4.05;;;1.70;;
16531;SDS011;8378;57.698;11.958;2022-08-21T12:17:20;3.17;;;1.85;;
16531;SDS011;8378;57.698;11.958;2022-08-21T12:20:56;4.72;;;2.13;;
16531;SDS011;8378;57.698;11.958;2022-08-21T12:22:53;3.55;;;1.80;;
16531;SDS011;8378;57.698;11.958;2022-08-21T12:25:44;4.55;;;1.90;;
16531;SDS011;8378;57.698;11.958;2022-08-21T12:28:14;3.70;;;1.83;;
16531;SDS011;8378;57.698;11.958;2022-08-21T12:30:46;4.25;;;1.98;;
16531;SDS011;8378;57.698;11.958;2022-08-21T12:35:51;7.82;;;2.30;;
16531;SDS011;8378;57.698;11.958;2022-08-21T12:38:27;5.07;;;2.00;;
16531;SDS011;8378;57.698;11.958;2022-08-21T12:41:18;4.25;;;1.77;;
16531;SDS011;8378;57.698;11.958;2022-08-21T12:43:56;3.95;;;2.13;;
16531;SDS011;8378;57.698;11.958;2022-08-21T12:46:46;5.50;;;2.22;;
16531;SDS011;8378;57.698;11.958;2022-08-21T12:49:18;3.60;;;2.15;;
16531;SDS011;8378;57.698;11.958;2022-08-21T12:52:09;4.93;;;2.00;;
16531;SDS011;8378;57.698;11.958;2022-08-21T12:54:42;3.38;;;1.77;;
16531;SDS011;8378;57.698;11.958;2022-08-21T12:57:16;4.75;;;1.98;;
16531;SDS011;8378;57.698;11.958;2022-08-21T12:59:45;4.43;;;2.10;;
16531;SDS011;8378;57.698;11.958;2022-08-21T13:02:18;3.83;;;2.10;;
16531;SDS011;8378;57.698;11.958;2022-08-21T13:04:47;4.22;;;1.98;;
16531;SDS011;8378;57.698;11.958;2022-08-21T13:07:15;7.03;;;2.03;;
16531;SDS011;8378;57.698;11.958;2022-08-21T13:09:48;3.60;;;1.83;;
16531;SDS011;8378;57.698;11.958;2022-08-21T13:12:19;3.58;;;2.22;;
16531;SDS011;8378;57.698;11.958;2022-08-21T13:14:46;4.05;;;2.10;;
16531;SDS011;8378;57.698;11.958;2022-08-21T13:17:17;3.20;;;2.08;;
16531;SDS011;8378;57.698;11.958;2022-08-21T13:20:01;4.40;;;2.00;;
16531;SDS011;8378;57.698;11.958;2022-08-21T13:22:29;3.47;;;1.70;;
16531;SDS011;8378;57.698;11.958;2022-08-21T13:24:55;4.15;;;1.90;;
16531;SDS011;8378;57.698;11.958;2022-08-21T13:27:23;3.80;;;1.73;;
16531;SDS011;8378;57.698;11.958;2022-08-21T13:30:10;3.08;;;1.70;;
16531;SDS011;8378;57.698;11.958;2022-08-21T13:32:40;5.10;;;2.38;;
16531;SDS011;8378;57.698;11.958;2022-08-21T13:37:49;2.85;;;1.90;;
16531;SDS011;8378;57.698;11.958;2022-08-21T13:40:19;4.45;;;2.08;;
16531;SDS011;8378;57.698;11.958;2022-08-21T13:42:49;5.45;;;2.58;;
16531;SDS011;8378;57.698;11.958;2022-08-21T13:45:18;5.00;;;1.80;;
16531;SDS011;8378;57.698;11.958;2022-08-21T13:47:49;4.15;;;2.30;;
16531;SDS011;8378;57.698;11.958;2022-08-21T13:50:16;4.47;;;2.38;;
16531;SDS011;8378;57.698;11.958;2022-08-21T13:52:48;4.47;;;2.13;;
16531;SDS011;8378;57.698;11.958;2022-08-21T13:55:38;3.45;;;1.75;;
16531;SDS011;8378;57.698;11.958;2022-08-21T13:58:06;4.10;;;1.90;;
16531;SDS011;8378;57.698;11.958;2022-08-21T14:00:35;2.45;;;1.70;;
16531;SDS011;8378;57.698;11.958;2022-08-21T14:03:15;4.55;;;2.00;;
16531;SDS011;8378;57.698;11.958;2022-08-21T14:06:01;4.28;;;2.20;;
16531;SDS011;8378;57.698;11.958;2022-08-21T14:08:31;2.90;;;2.05;;
16531;SDS011;8378;57.698;11.958;2022-08-21T14:11:05;5.55;;;2.10;;
16531;SDS011;8378;57.698;11.958;2022-08-21T14:13:40;6.22;;;3.17;;
16531;SDS011;8378;57.698;11.958;2022-08-21T14:16:19;8.93;;;7.25;;
16531;SDS011;8378;57.698;11.958;2022-08-21T14:19:09;5.55;;;3.90;;
16531;SDS011;8378;57.698;11.958;2022-08-21T14:21:37;4.70;;;2.78;;
16531;SDS011;8378;57.698;11.958;2022-08-21T14:24:06;7.15;;;3.53;;
16531;SDS011;8378;57.698;11.958;2022-08-21T14:26:37;4.18;;;2.70;;
16531;SDS011;8378;57.698;11.958;2022-08-21T14:29:15;6.70;;;3.40;;
16531;SDS011;8378;57.698;11.958;2022-08-21T14:31:42;4.65;;;3.25;;
16531;SDS011;8378;57.698;11.958;2022-08-21T14:34:14;5.00;;;3.30;;
16531;SDS011;8378;57.698;11.958;2022-08-21T14:36:41;5.75;;;2.75;;
16531;SDS011;8378;57.698;11.958;2022-08-21T14:39:08;8.05;;;5.85;;
16531;SDS011;8378;57.698;11.958;2022-08-21T14:41:34;11.80;;;7.22;;
16531;SDS011;8378;57.698;11.958;2022-08-21T14:44:01;7.80;;;6.10;;
16531;SDS011;8378;57.698;11.958;2022-08-21T14:46:28;7.13;;;4.75;;
16531;SDS011;8378;57.698;11.958;2022-08-21T14:48:55;7.13;;;4.80;;
16531;SDS011;8378;57.698;11.958;2022-08-21T14:51:21;5.43;;;4.53;;
16531;SDS011;8378;57.698;11.958;2022-08-21T14:53:47;5.22;;;3.97;;
16531;SDS011;8378;57.698;11.958;2022-08-21T14:56:13;7.32;;;3.33;;
16531;SDS011;8378;57.698;11.958;2022-08-21T14:58:41;4.32;;;2.92;;
16531;SDS011;8378;57.698;11.958;2022-08-21T15:01:10;7.57;;;4.00;;
16531;SDS011;8378;57.698;11.958;2022-08-21T15:03:38;8.23;;;5.32;;
16531;SDS011;8378;57.698;11.958;2022-08-21T15:06:04;7.53;;;4.45;;
16531;SDS011;8378;57.698;11.958;2022-08-21T15:08:31;6.53;;;3.47;;
16531;SDS011;8378;57.698;11.958;2022-08-21T15:10:58;4.70;;;3.50;;
16531;SDS011;8378;57.698;11.958;2022-08-21T15:13:25;7.03;;;3.88;;
16531;SDS011;8378;57.698;11.958;2022-08-21T15:15:51;5.90;;;3.28;;
16531;SDS011;8378;57.698;11.958;2022-08-21T15:18:21;6.13;;;3.05;;
16531;SDS011;8378;57.698;11.958;2022-08-21T15:20:49;7.60;;;3.13;;
16531;SDS011;8378;57.698;11.958;2022-08-21T15:23:14;4.97;;;2.92;;
16531;SDS011;8378;57.698;11.958;2022-08-21T15:25:44;7.10;;;3.20;;
16531;SDS011;8378;57.698;11.958;2022-08-21T15:28:11;7.75;;;4.95;;
16531;SDS011;8378;57.698;11.958;2022-08-21T15:30:39;6.35;;;4.88;;
16531;SDS011;8378;57.698;11.958;2022-08-21T15:33:06;6.05;;;4.22;;
16531;SDS011;8378;57.698;11.958;2022-08-21T15:35:32;8.35;;;4.47;;
16531;SDS011;8378;57.698;11.958;2022-08-21T15:37:58;7.38;;;4.30;;
16531;SDS011;8378;57.698;11.958;2022-08-21T15:40:24;6.03;;;4.25;;
16531;SDS011;8378;57.698;11.958;2022-08-21T15:42:51;7.20;;;3.85;;
16531;SDS011;8378;57.698;11.958;2022-08-21T15:45:20;4.10;;;3.10;;
16531;SDS011;8378;57.698;11.958;2022-08-21T15:47:46;5.70;;;4.13;;
16531;SDS011;8378;57.698;11.958;2022-08-21T15:50:15;5.70;;;4.32;;
16531;SDS011;8378;57.698;11.958;2022-08-21T15:52:41;7.22;;;4.80;;
16531;SDS011;8378;57.698;11.958;2022-08-21T15:55:08;8.50;;;4.80;;
16531;SDS011;8378;57.698;11.958;2022-08-21T15:57:34;8.52;;;4.63;;
16531;SDS011;8378;57.698;11.958;2022-08-21T16:00:12;6.75;;;4.30;;
16531;SDS011;8378;57.698;11.958;2022-08-21T16:02:45;4.20;;;2.97;;
16531;SDS011;8378;57.698;11.958;2022-08-21T16:05:14;7.55;;;4.05;;
16531;SDS011;8378;57.698;11.958;2022-08-21T16:07:42;5.25;;;3.58;;
16531;SDS011;8378;57.698;11.958;2022-08-21T16:10:09;6.15;;;4.40;;
16531;SDS011;8378;57.698;11.958;2022-08-21T16:12:36;8.30;;;4.18;;